x

Gravelly Shoals Light Mi (gslm4) Weather Station

6:40pm - Mon 26th Jan 2015 All times are CST. -6 hours from GMT.

  • Wind
    13mph, 15mph gusts
  • Air Temp 21°f
  • Sea Pressure 1016.3mb
  • Gravelly Shoals Light Mi
  • Gravelly Shoals Light Mi

More Historic Weather Station data

Upgrade to MSW Pro to gain access to the past 30 days of data for over 8000 Wavebouys and Weather Stations around the globe.

Join Pro

Comparision Forecast

View Surf forecast
   
Mon 01/26 6:40pm 13 15 mph 1016.3mb 21f
6:30pm 11 14 mph 1016.3mb 21f
6:20pm 11 14 mph 1016.3mb 21f
6:10pm 10 14 mph 1016.3mb 21f
6:00pm 13 15 mph 1016.3mb 21f
5:30pm 11 13 mph 1015.9mb 20f
5:20pm 10 15 mph 1015.9mb 20f
5:10pm 9 11 mph 1015.6mb 20f
5:00pm 11 14 mph 1015.6mb 20f
4:42pm 10 14 mph 1015.2mb 20f
4:40pm 10 13 mph 1015.2mb 20f
4:30pm 9 11 mph 1015.2mb 19f
4:20pm 9 10 mph 1015.6mb 19f
4:10pm 9 11 mph 1015.2mb 19f
4:00pm 10 13 mph 1015.2mb 19f
3:42pm 11 15 mph 1015.2mb 20f
3:40pm 11 15 mph 1015.2mb 20f
3:30pm 13 15 mph 1015.2mb 20f
3:20pm 14 15 mph 1014.9mb 19f
3:10pm 13 14 mph 1014.9mb 20f
3:00pm 11 15 mph 1015.2mb 20f
2:41pm 11 16 mph 1014.9mb 20f
2:40pm 11 16 mph 1014.9mb 20f
2:30pm 11 14 mph 1014.9mb 20f
2:20pm 13 15 mph 1014.9mb 20f
2:10pm 11 16 mph 1014.9mb 20f
2:00pm 15 16 mph 1014.9mb 20f
1:41pm 11 14 mph 1014.9mb 20f
1:40pm 11 14 mph 1014.6mb 20f
1:30pm 13 14 mph 1014.9mb 20f
1:20pm 9 11 mph 1014.9mb 20f
1:10pm 10 14 mph 1014.9mb 20f
1:00pm 11 13 mph 1014.9mb 20f
12:40pm 11 13 mph 1014.9mb 20f
12:30pm 9 14 mph 1014.9mb 19f
12:20pm 13 15 mph 1015.2mb 19f
12:10pm 10 16 mph 1015.2mb 19f
12:00pm 11 15 mph 1015.2mb 19f
11:40am 14 16 mph 1015.2mb 19f
11:30am 14 16 mph 1015.6mb 20f
11:20am 9 11 mph 1015.6mb 20f
11:10am 2 3 mph 1015.9mb 20f
11:00am  -  3 mph 1015.9mb 18f
10:40am 1 5 mph 1016.3mb 17f
10:30am 3 5 mph 1016.6mb 17f
10:20am 2 5 mph 1016.9mb 15f
10:10am 2 5 mph 1016.9mb 17f
10:00am  -  5 mph 1016.9mb 19f
9:40am 2 6 mph 1016.3mb 19f
9:30am  -  3 mph 1016.3mb 20f
9:21am  -  10 mph 1016.3mb 18f
9:20am  -  6 mph 1016.3mb 18f
9:10am 5 6 mph 1016.3mb 19f
9:00am  -  6 mph 1016.3mb 19f
8:40am  -  2 mph 1016.3mb 17f
8:30am 3 10 mph 1016.6mb 19f
8:21am 9 14 mph 1016.3mb 19f
8:20am 9 13 mph 1016.3mb 19f
8:10am 9 13 mph 1016.3mb 19f
8:00am 9 14 mph 1015.9mb 18f
7:40am 7 10 mph 1016.3mb 18f
7:30am 9 11 mph 1016.6mb 18f
7:20am 9 14 mph 1016.3mb 18f
7:10am 9 13 mph 1016.3mb 18f
7:00am 10 13 mph 1016.3mb 18f
6:40am 10 14 mph 1016.3mb 18f
6:30am 9 14 mph 1016.3mb 18f
6:20am 10 14 mph 1016.3mb 17f
6:10am 11 14 mph 1016.3mb 17f
6:00am 9 14 mph 1016.3mb 17f
5:40am 11 13 mph 1016.3mb 17f
5:30am 7 13 mph 1016.3mb 17f
5:20am 11 15 mph 1015.9mb 17f
5:19am 13 20 mph 1015.9mb 17f
5:10am 14 15 mph 1015.9mb 17f
5:00am 11 15 mph 1015.9mb 17f
4:40am 14 20 mph 1015.9mb 17f
4:30am 18 20 mph 1015.9mb 17f
4:20am 15 20 mph 1015.9mb 17f
4:19am 15 20 mph 1015.9mb 17f
4:10am 13 16 mph 1015.9mb 17f
4:00am 15 16 mph 1015.9mb 17f
3:40am 15
mph
1016.6mb 17f
3:30am 11 15 mph 1016.6mb 18f
3:20am 14 17 mph 1016.6mb 19f
3:19am 15 20 mph 1016.6mb 19f
3:10am 10 13 mph 1016.6mb 19f
3:00am 10 15 mph 1016.6mb 18f
2:40am 14 20 mph 1016.6mb 19f
2:30am 15 18 mph 1016.3mb 19f
2:20am 10 11 mph 1016.6mb 19f
2:18am 10 17 mph 1016.6mb 19f
2:10am 10 16 mph 1016.9mb 19f
2:00am 15 16 mph 1016.6mb 19f
1:40am 13 15 mph 1016.9mb 19f
1:30am 11 16 mph 1016.9mb 19f
1:20am 14 17 mph 1016.9mb 19f
1:18am 14 21 mph 1016.9mb 19f
1:10am 16 18 mph 1016.6mb 19f
1:00am 16 20 mph 1016.6mb 19f
12:40am 17 21 mph 1016.9mb 19f
12:30am 17 20 mph 1016.9mb 19f
12:20am 16 18 mph 1017.3mb 19f
12:17am 13 22 mph 1017.3mb 19f
12:10am 17 20 mph 1017.3mb 19f
12:00am 16 21 mph 1017.6mb 19f
Sun 01/25 11:40pm 16 21 mph 1017.9mb 19f
11:30pm 15 18 mph 1017.9mb 19f
11:20pm 15 20 mph 1017.9mb 19f
11:17pm 17 21 mph 1017.9mb 19f
11:10pm 17 21 mph 1017.9mb 19f
11:00pm 15 18 mph 1018.3mb 19f
10:40pm 16 20 mph 1018.3mb 19f
10:30pm 15 20 mph 1017.9mb 19f
10:20pm 17 20 mph 1018.3mb 19f
10:17pm 17 22 mph 1018.3mb 19f
10:10pm 15 22 mph 1018.3mb 19f
10:00pm 18 22 mph 1018.3mb 19f
9:40pm 18 21 mph 1017.9mb 19f
9:30pm 16 22 mph 1018.3mb 19f
9:20pm 20 22 mph 1018.3mb 19f
9:16pm 16 22 mph 1018.3mb 18f
9:10pm 18 21 mph 1018.3mb 19f
9:00pm 18 21 mph 1018.3mb 19f
8:40pm 20 22 mph 1017.9mb 18f
8:30pm 20 21 mph 1018.3mb 18f
8:20pm 17 22 mph 1018.3mb 18f
8:16pm 15 21 mph 1018.3mb 18f
8:10pm 18 21 mph 1018.3mb 18f
8:00pm 18 21 mph 1018.3mb 19f
7:40pm 18 21 mph 1018.3mb 19f
7:30pm 17 20 mph 1018.3mb 18f
7:20pm 16 21 mph 1018.3mb 17f
7:15pm 17 22 mph 1018.3mb 17f
7:10pm 17 20 mph 1018.3mb 17f
7:00pm 17 21 mph 1018.3mb 17f
6:50pm 18 22 mph 1018.3mb 17f
6:40pm 16 18 mph 1018.3mb 17f
6:30pm 14 18 mph 1018.6mb 18f
6:20pm 16 20 mph 1018.3mb 19f
6:15pm 16 20 mph 1018.3mb 19f
6:10pm 15 20 mph 1017.9mb 19f
6:00pm 14 20 mph 1018.3mb 18f
5:50pm 14 20 mph 1017.9mb 18f
5:30pm 14 18 mph 1017.9mb 18f
5:20pm 15 22 mph 1017.9mb 18f
5:15pm 15 22 mph 1017.9mb 18f
5:10pm 15 18 mph 1017.6mb 18f
5:00pm 15 20 mph 1017.6mb 18f
4:50pm 14 20 mph 1017.3mb 18f
4:40pm 16 21 mph 1017.6mb 18f
4:30pm 14 17 mph 1017.6mb 18f
4:20pm 17 21 mph 1017.3mb 18f
4:14pm 16 24 mph 1017.3mb 18f
4:10pm 17 22 mph 1017.3mb 18f
4:00pm 18 21 mph 1017.3mb 18f
3:50pm 17 21 mph 1016.9mb 18f
3:40pm 17 23 mph 1016.9mb 18f
3:30pm 18 24 mph 1016.9mb 18f
3:20pm 17 20 mph 1016.9mb 18f
3:14pm 17 22 mph 1016.9mb 18f
3:10pm 18 22 mph 1016.9mb 18f
3:00pm 17 21 mph 1016.6mb 19f
2:50pm 18 22 mph 1016.6mb 19f
2:40pm 17 22 mph 1016.6mb 19f
2:30pm 20 21 mph 1016.6mb 18f
2:20pm 20 22 mph 1016.6mb 18f
2:13pm 15 22 mph 1016.6mb 19f
2:10pm 16 21 mph 1016.6mb 19f
2:00pm 16 21 mph 1016.6mb 19f
1:50pm 15 21 mph 1016.6mb 19f
1:40pm 16 20 mph 1016.6mb 19f
1:30pm 17 18 mph 1016.6mb 19f
1:20pm 14 22 mph 1016.6mb 19f
1:13pm 15 22 mph 1016.3mb 19f
1:10pm 16 18 mph 1016.3mb 19f
1:00pm 16 20 mph 1016.3mb 19f
12:50pm 17 20 mph 1016.3mb 19f
12:40pm 16 21 mph 1016.3mb 19f
12:30pm 16 22 mph 1016.3mb 19f
12:20pm 15 20 mph 1016.3mb 19f
12:13pm 14 25 mph 1016.3mb 19f
12:10pm 15 21 mph 1016.3mb 19f
12:00pm 16 20 mph 1016.3mb 19f
11:50am 18 23 mph 1015.9mb 18f
11:40am 20 23 mph 1015.9mb 18f
11:30am 20 24 mph 1015.9mb 18f
11:20am 21 25 mph 1015.9mb 18f
11:12am 20 26 mph 1015.9mb 18f
11:10am 20 23 mph 1015.9mb 18f
11:00am 18 24 mph 1015.9mb 18f
10:50am 22 25 mph 1015.9mb 18f
10:40am 21 26 mph 1015.9mb 18f
10:30am 22 26 mph 1015.6mb 18f
10:20am 21 25 mph 1015.9mb 18f
10:12am 22 28 mph 1015.6mb 18f
10:10am 22 24 mph 1015.6mb 18f
10:00am 21 23 mph 1015.6mb 18f
9:50am 21 25 mph 1015.6mb 18f
9:40am 23 28 mph 1015.2mb 18f
9:30am 22 26 mph 1015.2mb 17f
9:20am 23 25 mph 1014.9mb 17f
9:11am 21 26 mph 1014.9mb 17f
9:10am 21 25 mph 1014.9mb 17f
9:00am 22 26 mph 1014.9mb 17f
8:50am 20 26 mph 1014.6mb 17f
8:40am 17 20 mph 1014.9mb 17f
8:30am 16 22 mph 1014.6mb 16f
8:20am 17 23 mph 1014.6mb 16f
8:11am 20 25 mph 1014.6mb 16f
8:10am 20 23 mph 1014.6mb 16f
8:00am 21 25 mph 1014.2mb 16f
7:50am 22 25 mph 1014.2mb 16f
7:40am 20 25 mph 1014.2mb 16f
7:30am 20 25 mph 1014.6mb 16f
7:20am 20 23 mph 1014.6mb 16f
7:11am 17 25 mph 1014.6mb 16f
7:10am 17 23 mph 1014.6mb 16f
7:00am 18 24 mph 1014.2mb 16f
6:50am 21 25 mph 1014.2mb 16f
6:40am 21 25 mph 1013.9mb 16f
6:30am 21 24 mph 1013.9mb 16f
6:20am 20 24 mph 1013.5mb 16f
6:10am 21 25 mph 1013.5mb 16f
6:00am 21 26 mph 1013.2mb 16f
5:50am 21 25 mph 1012.9mb 17f
5:40am 22 26 mph 1012.9mb 17f
5:30am 23 28 mph 1012.5mb 17f
5:20am 23 29 mph 1011.9mb 17f
5:13am 23 29 mph 1011.9mb 17f
5:10am 24 26 mph 1011.9mb 17f
5:00am 23 28 mph 1011.9mb 17f
4:50am 23 26 mph 1011.5mb 17f
4:40am 22 25 mph 1011.5mb 17f
4:30am 21 24 mph 1011.5mb 17f
4:20am 22 24 mph 1011.2mb 18f
4:10am 22 25 mph 1011.2mb 18f
4:09am 21 26 mph 1011.2mb 18f
4:00am 22 26 mph 1010.8mb 18f
3:50am 22 25 mph 1010.5mb 19f
3:40am 21 24 mph 1010.5mb 19f
3:30am 21 23 mph 1010.5mb 19f
3:20am 20 23 mph 1010.2mb 20f
3:10am 21 24 mph 1010.2mb 20f
3:09am 20 24 mph 1010.2mb 20f
3:00am 21 24 mph 1010.2mb 20f
2:50am 21 23 mph 1009.8mb 21f
2:40am 18 21 mph 1009.5mb 22f
2:30am 14 17 mph 1009.5mb 22f
2:20am 15 18 mph 1009.5mb 22f
2:10am 15 18 mph 1009.1mb 22f
2:08am 16 22 mph 1009.1mb 22f
2:00am 16 18 mph 1009.1mb 22f
1:50am 16 20 mph 1008.8mb 22f
1:40am 16 18 mph 1008.8mb 22f
1:30am 17 21 mph 1008.8mb 22f
1:20am 17 20 mph 1008.5mb 22f
1:10am 20 22 mph 1008.5mb 22f
1:08am 18 25 mph 1008.5mb 22f
1:00am 18 21 mph 1008.1mb 22f
12:50am 18 22 mph 1008.1mb 22f
12:40am 20 23 mph 1007.8mb 23f
12:30am 21 23 mph 1007.5mb 23f
12:20am 23 25 mph 1007.5mb 23f
12:10am 21 25 mph 1007.5mb 23f
12:08am 21 25 mph 1007.1mb 23f
12:00am 21 24 mph 1007.1mb 23f
Sat 01/24 11:50pm 22 24 mph 1007.1mb 24f
11:40pm 23 24 mph 1006.8mb 24f
11:30pm 22 24 mph 1006.8mb 24f
11:20pm 22 24 mph 1006.8mb 24f
11:10pm 20 22 mph 1006.4mb 26f
11:07pm 16 24 mph 1006.4mb 27f
11:00pm 16 20 mph 1006.4mb 27f
10:50pm 18 20 mph 1006.4mb 27f
10:40pm 17 21 mph 1006.1mb 28f
10:30pm 21 23 mph 1005.8mb 28f
10:20pm 21 24 mph 1005.8mb 28f
10:10pm 22 24 mph 1005.8mb 29f
10:07pm 22 24 mph 1005.8mb 29f
10:00pm 16 21 mph 1005.4mb 30f
9:50pm 17 20 mph 1005.4mb 31f
9:40pm 14 16 mph 1005.1mb 31f
9:30pm 14 16 mph 1005.1mb 31f
9:20pm 11 13 mph 1005.1mb 31f
9:10pm 11 16 mph 1005.1mb 32f
9:06pm 13 21 mph 1004.7mb 32f
9:00pm 16 18 mph 1004.7mb 32f
8:50pm 16 21 mph 1004.7mb 32f
8:40pm 11 15 mph 1004.4mb 33f
8:30pm 13 15 mph 1004.4mb 33f
8:20pm 14 15 mph 1004.1mb 33f
8:10pm 13 17 mph 1004.1mb 33f
8:06pm 13 21 mph 1004.1mb 34f
8:00pm 14 17 mph 1004.1mb 34f
7:50pm 14 20 mph 1004.1mb 34f
7:40pm 16 21 mph 1003.7mb 34f
7:30pm 18 21 mph 1003.7mb 34f
7:20pm 17 21 mph 1003.7mb 35f
7:10pm 16 18 mph 1003.7mb 35f
7:06pm 14 17 mph 1003.7mb 35f
7:00pm 14 16 mph 1003.7mb 35f
6:50pm 13
mph
1003.4mb 35f
6:40pm 11 14 mph 1003mb 35f
6:30pm 13 14 mph 1003mb 35f
6:20pm 11 13 mph 1003mb 35f
6:10pm 9 11 mph 1002.7mb 35f
6:05pm 9 15 mph 1002.7mb 35f
6:00pm 9 11 mph 1002.7mb 35f
5:50pm 11
mph
1002.4mb 35f
5:30pm 11 13 mph 1002mb 35f
5:20pm 9 14 mph 1001.7mb 35f
5:10pm 13 15 mph 1001.7mb 36f
5:05pm 10 20 mph 1001.7mb 35f
5:00pm 10 13 mph 1001.4mb 35f
4:50pm 9 11 mph 1001.4mb 35f
4:40pm 10 15 mph 1001.4mb 35f
4:30pm 15 17 mph 1000.7mb 34f
4:20pm 15 20 mph 1000.7mb 35f
4:10pm 16 17 mph 1000.7mb 35f
4:04pm 13 17 mph 1000.7mb 35f
4:00pm 14
mph
1000.7mb 35f
3:50pm 13 16 mph 1000.3mb 35f
3:40pm 14 17 mph 1000.3mb 37f
3:30pm 14 16 mph 1000.3mb 35f
3:20pm 13 16 mph 1000.3mb 37f
3:10pm 14 15 mph 1000.3mb 37f
3:04pm 13 20 mph 1000mb 37f
3:00pm 11 15 mph 1000mb 37f
2:50pm 15 17 mph 1000.3mb 36f
2:40pm 17 20 mph 1000.3mb 37f
2:30pm 16 17 mph 1000mb 36f
2:20pm 14 15 mph 1000mb 36f
2:10pm 14 15 mph 1000mb 36f
2:04pm 11 18 mph 1000mb 35f
2:00pm 10 14 mph 1000mb 35f
1:50pm 13 15 mph 1000mb 35f
1:40pm 14 15 mph 1000mb 35f
1:30pm 10 13 mph 1000mb 35f
1:20pm 13 16 mph 1000mb 35f
1:10pm 16 21 mph 1000mb 36f
1:03pm 18 22 mph - -
1:00pm 18 22 mph 1000mb 37f
12:50pm 17 20 mph 1000mb 36f
12:40pm 17
mph
1000mb 35f
12:30pm 16 17 mph 1000mb 35f
12:20pm 11 13 mph 1000mb 34f
12:10pm 14
mph
1000.3mb 34f
12:03pm 10 14 mph 1000.3mb 34f
12:00pm 10 14 mph 1000.3mb 34f
11:50am 10 13 mph 1000.7mb 33f
11:40am 11
mph
1000.7mb 33f
11:30am 7 10 mph 1000.7mb 33f
11:20am 9 10 mph 1000.7mb 33f
11:10am 9 10 mph 1001mb 33f
11:02am 10 16 mph 1001mb 33f
11:00am 11 13 mph 1001.4mb 33f
10:50am 11 13 mph 1001.4mb 32f
10:40am 10 11 mph 1001.7mb 31f
10:30am 11 14 mph 1001.7mb 31f
10:20am 13 15 mph 1002mb 31f
10:10am 15 16 mph 1002mb 31f
10:02am 14 16 mph 1002mb 30f
10:00am 15 16 mph 1002mb 30f
9:50am 13 15 mph 1002mb 30f
9:40am 13 15 mph 1002mb 30f
9:30am 13 15 mph 1002.4mb 30f
9:20am 10 15 mph 1002mb 30f
9:10am 6 11 mph 1002mb 30f
9:02am 7 11 mph 1002.4mb 29f
9:00am 8 11 mph 1002.4mb 29f
8:50am 6 8 mph 1002.4mb 29f
8:40am 2 8 mph 1002.4mb 29f
8:30am 2 11 mph 1002.4mb 29f
8:20am 8 10 mph 1002.4mb 29f
8:10am 3 7 mph 1002.4mb 29f
8:01am 3 13 mph 1002.4mb 29f
8:00am 3 8 mph 1002.4mb 29f
7:50am 3 11 mph 1002.4mb 29f
7:40am 7 11 mph 1002.7mb 29f
7:30am 7 13 mph 1002.7mb 29f
7:20am 6 9 mph 1002.4mb 29f
7:10am 5 9 mph 1002.4mb 29f
7:01am 3 16 mph 1002.7mb 29f
7:00am 3 7 mph 1002.4mb 29f
6:50am 2 8 mph 1002.7mb 29f
6:40am 7 11 mph 1002.7mb 29f
6:30am 7 11 mph 1002.7mb 29f
6:20am 9 16 mph 1003mb 29f
6:10am 9 14 mph 1003mb 29f
6:00am 5 11 mph 1003mb 29f
5:50am 5 7 mph 1003mb 29f
5:40am 6 11 mph 1003mb 29f
5:30am 3 7 mph 1003mb 29f
5:20am 2 6 mph 1003mb 29f
5:10am 2 11 mph 1003mb 28f
5:00am 7 13 mph 1003.4mb 28f
4:50am 5 9 mph 1003mb 28f
4:40am 5 10 mph 1003.4mb 28f
4:30am 5 9 mph 1003.4mb 28f
4:20am 2 8 mph 1003.7mb 28f
4:10am 3 7 mph 1003.7mb 28f
4:00am 2 7 mph 1003.7mb 28f
3:50am 2 6 mph 1003.7mb 28f
3:40am 2 9 mph 1004.1mb 28f
3:30am 5 10 mph 1004.1mb 28f
3:20am 3 8 mph 1004.1mb 28f
3:10am 5 17 mph 1004.4mb 28f
3:00am 15 16 mph 1004.7mb 28f
2:50am 13 18 mph 1004.7mb 28f
2:40am 16 18 mph 1004.7mb 28f
2:30am 15 18 mph 1005.1mb 28f
2:22am 10 24 mph 1004.7mb 28f
2:20am 13 18 mph 1004.7mb 28f
2:10am 13 18 mph 1005.1mb 28f
2:00am 15 20 mph 1005.1mb 28f
1:50am 16 23 mph 1005.4mb 28f
1:40am 18 23 mph 1005.4mb 28f
1:30am 18 25 mph 1005.4mb 28f
1:21am 21 25 mph 1005.8mb 28f
1:20am 21 25 mph 1005.8mb 28f
1:10am 20 25 mph 1005.8mb 28f
1:00am 20 25 mph 1005.8mb 28f
12:50am 17 23 mph 1006.1mb 28f
12:40am 14 22 mph 1006.1mb 28f
12:30am 11 22 mph 1006.4mb 28f
12:21am 11 18 mph 1006.8mb 28f
12:20am 11 16 mph 1006.8mb 28f
12:10am 7 17 mph 1006.8mb 28f
12:00am 8 14 mph 1007.1mb 28f
Fri 01/23 11:50pm 6 16 mph 1007.5mb 28f
11:40pm 8 16 mph 1007.5mb 28f
11:30pm 9 18 mph 1007.8mb 27f
11:21pm 8 22 mph 1007.8mb 28f
11:20pm 8 15 mph 1007.8mb 28f
11:10pm 6 13 mph 1007.8mb 28f
11:00pm 8 14 mph 1007.8mb 28f
10:50pm 8 16 mph 1008.1mb 28f
10:40pm 11 18 mph 1008.1mb 28f
10:30pm 15 22 mph 1008.5mb 28f
10:20pm 17 24 mph 1008.8mb 28f
10:10pm 18 24 mph 1009.1mb 28f
10:00pm 17 24 mph 1009.1mb 28f
9:50pm 17 23 mph 1009.1mb 29f
9:40pm 15 21 mph 1009.1mb 29f
9:30pm 11 20 mph 1009.5mb 29f
9:20pm 11 22 mph 1009.5mb 29f
9:10pm 10 20 mph 1009.5mb 29f
9:00pm 11 18 mph 1009.8mb 29f
8:50pm 14 22 mph 1009.8mb 29f
8:40pm 13 20 mph 1010.2mb 29f
8:30pm 11 20 mph 1010.2mb 29f
8:20pm 10 16 mph 1010.5mb 29f
8:19pm 10 16 mph 1010.5mb 29f
8:10pm 10 16 mph 1010.5mb 29f
8:00pm 6 13 mph 1010.2mb 28f
7:50pm 5 15 mph 1010.5mb 29f
7:40pm 6 14 mph 1010.5mb 29f
7:30pm 7 16 mph 1010.8mb 29f
7:20pm 8 15 mph 1010.8mb 29f
7:19pm 8 16 mph 1010.8mb 29f
7:10pm 6 16 mph 1011.2mb 29f
7:00pm 8 15 mph 1010.8mb 29f
6:50pm 6 13 mph 1010.8mb 29f
6:40pm 7 10 mph 1011.2mb 29f
6:30pm 5 16 mph 1011.2mb 29f
6:20pm 8 16 mph 1011.5mb 29f
6:19pm 7 21 mph 1011.5mb 29f
6:10pm 9 20 mph 1011.5mb 29f
6:00pm 8 17 mph 1011.5mb 29f
5:50pm 8 14 mph 1011.9mb 29f
5:30pm 10 21 mph 1011.9mb 29f
5:20pm 9 22 mph 1011.9mb 29f
5:18pm 9 29 mph 1011.9mb 29f
5:10pm 11 20 mph 1011.9mb 29f
5:00pm 9 21 mph 1011.9mb 29f
4:50pm 11 20 mph 1012.2mb 29f
4:40pm 10 22 mph 1012.2mb 29f
4:30pm 17 29 mph 1012.2mb 30f
4:20pm 17 25 mph 1012.2mb 30f
4:18pm 16 25 mph 1012.5mb 30f
4:10pm 18 25 mph 1012.5mb 30f
4:00pm 15 24 mph 1012.5mb 30f
3:50pm 13 20 mph 1012.5mb 30f
3:40pm 10 21 mph 1012.9mb 30f
3:30pm 10 21 mph 1012.9mb 30f
3:20pm 10 20 mph 1012.9mb 30f
3:17pm 10 26 mph 1012.9mb 30f
3:10pm 9 20 mph 1012.9mb 31f
3:00pm 9 17 mph 1013.2mb 31f
2:50pm 8 21 mph 1013.2mb 31f
2:40pm 13 24 mph 1013.5mb 31f
2:30pm 15 26 mph 1013.5mb 31f
2:20pm 15 22 mph 1013.5mb 31f
2:17pm 13 25 mph 1013.9mb 31f
2:10pm 13 24 mph 1013.9mb 31f
2:00pm 15 24 mph 1013.5mb 31f
1:50pm 15 25 mph 1013.9mb 31f
1:40pm 10 24 mph 1013.9mb 30f
1:30pm 11 22 mph 1013.9mb 30f
1:20pm 14 24 mph 1014.2mb 30f
1:17pm 11 25 mph 1014.2mb 30f
1:10pm 13 23 mph 1014.2mb 30f
1:00pm 13 22 mph 1014.6mb 30f
12:50pm 15 23 mph 1014.6mb 30f
12:40pm 15 29 mph 1014.9mb 30f
12:30pm 17 31 mph 1015.2mb 30f
12:20pm 17 26 mph 1015.6mb 30f
12:16pm 17
mph
1015.6mb 30f
12:10pm 22 29 mph 1015.6mb 30f
12:00pm 18 29 mph 1016.3mb 30f
11:50am 20 29 mph 1016.3mb 30f
11:40am 18 30 mph 1016.3mb 30f
11:31am 21 30 mph - 29f
11:30am 21 29 mph 1016.6mb 29f
11:20am 20 26 mph 1016.9mb 29f
11:16am 17 22 mph 1016.9mb 29f
11:10am 18 28 mph 1016.9mb 29f
11:00am 17 25 mph 1017.3mb 29f
10:50am 16 26 mph 1017.6mb 29f
10:40am 21 31 mph 1017.6mb 29f
10:30am 22 30 mph 1017.9mb 29f
10:20am 23 30 mph 1017.9mb 29f
10:15am 22
mph
1018.3mb 29f
10:10am 20 28 mph 1018.3mb 29f
10:00am 20 26 mph 1018.3mb 28f
9:50am 17 28 mph 1018.3mb 28f
9:40am 16 28 mph 1018.6mb 28f
9:30am 14 22 mph 1018.6mb 28f
9:20am 15 22 mph 1018.6mb 28f
9:15am 14 25 mph 1018.6mb 28f
9:10am 15 25 mph 1018.6mb 27f
9:00am 13 20 mph 1018.6mb 27f
8:50am 13 22 mph 1019mb 27f
8:40am 13 20 mph 1019.3mb 26f
8:30am 11 18 mph 1019.3mb 26f
8:20am 9 17 mph 1019.3mb 26f
8:14am 10 18 mph 1019.3mb 26f
8:10am 9 16 mph 1019.3mb 26f
8:00am 9 16 mph 1019.6mb 25f
7:50am 8 15 mph 1019.6mb 25f
7:40am 9 17 mph 1020mb 25f
7:30am 10 17 mph 1020mb 24f
7:20am 10 18 mph 1020.3mb 24f
7:14am 10 17 mph 1020.3mb 23f
7:10am 7 14 mph 1020.3mb 23f
7:00am 6 13 mph 1020.3mb 23f
6:50am 5 8 mph 1020.3mb 22f
6:40am 3 8 mph 1020.7mb 21f
6:30am 5 9 mph 1020.7mb 19f
6:20am 6 10 mph 1020.7mb 19f
6:14am 7 13 mph 1020.7mb 19f
6:10am 8 13 mph 1020.7mb 19f
6:00am 8 13 mph 1020.7mb 18f
5:50am 7 10 mph 1021mb 18f
5:40am 5 8 mph 1021.3mb 19f
5:30am 3 8 mph 1021.3mb 19f
5:20am 3 7 mph 1021.3mb 19f
5:13am 3 11 mph 1021.7mb 19f
5:10am 2 6 mph 1021.7mb 19f
5:00am 2 7 mph 1022mb 19f
4:50am 2 7 mph 1022mb 19f
4:40am 3 9 mph 1022mb 20f
4:30am 6 11 mph 1022mb 20f
4:20am 3 9 mph 1022mb 19f
4:13am 2 8 mph 1022.4mb 19f
4:10am 2 6 mph 1022.4mb 19f
4:00am 3 7 mph 1022.4mb 19f
3:50am 3 7 mph 1022.4mb 19f
3:40am 5 8 mph 1022.4mb 19f
3:30am 3 7 mph 1022.7mb 20f
3:20am 3 6 mph 1022.7mb 19f
3:12am 3 7 mph 1023mb 19f
3:10am 3 6 mph 1023mb 19f
3:00am 2 6 mph 1023mb 19f
2:50am 2 6 mph 1023.4mb 19f
2:40am 2 7 mph 1023.4mb 19f
2:30am 2 6 mph 1023.7mb 19f
2:20am 2 6 mph 1023.7mb 19f
2:12am 2 8 mph 1023.7mb 19f
2:10am 2 6 mph 1024mb 19f
2:00am 3 7 mph 1024.4mb 20f
1:50am 3 8 mph 1024.4mb 19f
1:40am 3 8 mph 1024.4mb 20f
1:30am 3 7 mph 1024.4mb 20f